Terminal Aerodrome Forecast
Issued by NWS

Home | Current Version | Previous Version | Text Only | Print | Product List | Glossary On
Versions: 1 2 3 4 5 6 7 8 9 10 11 12 13 14 15 16 17 18
000
FTUS44 KLZK 251100
TAFBPK
TAF
KBPK 251120Z 2512/2612 16003KT P6SM SKC
     FM251700 19010G20KT P6SM SCT250
     FM260000 17008KT P6SM SCT020 SCT250
     FM260800 20010KT P6SM BKN025=

USA.gov is the U.S. government's official web portal to all federal, state and local government web resources and services.